createdAt,value
2019-01-21T00:02:36.335Z,74.25
2019-01-21T00:06:41.386Z,74.54
2019-01-21T00:10:46.381Z,73.86
2019-01-21T00:14:51.461Z,74.51
2019-01-21T00:18:56.599Z,75.33
2019-01-21T00:23:02.515Z,75.09
2019-01-21T00:27:07.603Z,75.45
2019-01-21T00:31:12.755Z,75.91
2019-01-21T00:35:17.941Z,76.08
2019-01-21T00:39:23.276Z,76.62
2019-01-21T00:43:28.337Z,76.10
2019-01-21T00:47:33.439Z,76.31
2019-01-21T00:51:38.564Z,75.66
2019-01-21T00:55:43.675Z,75.59
2019-01-21T00:59:48.760Z,75.91
2019-01-21T01:03:54.004Z,75.82
2019-01-21T01:07:59.318Z,75.59
2019-01-21T01:12:04.467Z,75.27
2019-01-21T01:16:09.557Z,75.29
2019-01-21T01:20:16.726Z,75.17
2019-01-21T01:24:21.715Z,74.66
2019-01-21T01:28:26.766Z,74.63
2019-01-21T01:32:31.915Z,75.23
2019-01-21T01:36:36.891Z,76.18
2019-01-21T01:40:42.194Z,76.58
2019-01-21T01:44:47.286Z,76.59
2019-01-21T01:48:52.403Z,76.88
2019-01-21T01:52:57.577Z,76.40
2019-01-21T01:57:02.627Z,76.41
2019-01-21T02:01:07.751Z,76.55
2019-01-21T02:05:12.882Z,76.51
2019-01-21T02:09:17.914Z,76.37
2019-01-21T02:13:23.015Z,76.39
2019-01-21T02:17:28.051Z,75.77
2019-01-21T02:21:35.551Z,75.80
2019-01-21T02:25:53.507Z,76.08
2019-01-21T02:30:43.274Z,76.63
2019-01-21T02:35:14.871Z,76.47
2019-01-21T02:39:50.651Z,76.03
2019-01-21T02:44:33.305Z,75.36
2019-01-21T02:48:53.926Z,75.48
2019-01-21T02:53:21.139Z,74.74
2019-01-21T02:57:58.834Z,75.07
2019-01-21T03:02:53.906Z,75.06
2019-01-21T03:07:22.783Z,74.85
2019-01-21T03:12:30.383Z,74.72
2019-01-21T03:17:13.905Z,74.46
2019-01-21T03:22:02.975Z,73.61
2019-01-21T03:26:28.143Z,73.87
2019-01-21T03:31:13.133Z,74.10
2019-01-21T03:36:02.301Z,74.72
2019-01-21T03:40:44.030Z,75.33
2019-01-21T03:45:36.241Z,74.19
2019-01-21T03:50:07.955Z,74.62
2019-01-21T03:54:21.554Z,74.87
2019-01-21T03:58:49.295Z,74.73
2019-01-21T04:03:19.531Z,74.82
2019-01-21T04:08:05.136Z,74.91
2019-01-21T04:12:45.441Z,74.60
2019-01-21T04:17:41.957Z,75.72
2019-01-21T04:22:23.929Z,75.51
2019-01-21T04:26:46.567Z,75.26
2019-01-21T04:31:50.964Z,75.29
2019-01-21T04:36:45.929Z,74.38
2019-01-21T04:41:10.429Z,74.71
2019-01-21T04:45:35.006Z,75.66
2019-01-21T04:50:19.411Z,75.65
2019-01-21T04:55:13.501Z,75.04
2019-01-21T05:00:01.485Z,75.09
2019-01-21T05:04:24.435Z,74.94
2019-01-21T05:09:19.443Z,74.76
2019-01-21T05:13:51.308Z,75.23
2019-01-21T05:18:41.301Z,74.48
2019-01-21T05:23:18.804Z,75.06
2019-01-21T05:27:40.501Z,74.91
2019-01-21T05:32:17.798Z,74.64
2019-01-21T05:37:17.809Z,74.13
2019-01-21T05:41:44.441Z,75.16
2019-01-21T05:46:16.368Z,75.24
2019-01-21T05:51:07.475Z,74.76
2019-01-21T05:55:40.863Z,75.05
2019-01-21T06:00:22.456Z,74.82
2019-01-21T06:04:45.289Z,74.62
2019-01-21T06:09:28.843Z,74.47
2019-01-21T06:13:56.173Z,74.81
2019-01-21T06:18:42.280Z,74.53
2019-01-21T06:23:09.464Z,74.28
2019-01-21T06:27:51.911Z,74.06
2019-01-21T06:32:42.198Z,74.78
2019-01-21T06:37:05.058Z,79.27
2019-01-21T06:41:38.109Z,79.69
2019-01-21T06:46:19.840Z,80.13
2019-01-21T06:51:02.934Z,79.37
2019-01-21T06:55:50.271Z,77.63
2019-01-21T07:00:31.016Z,79.31
2019-01-21T07:05:18.828Z,78.27
2019-01-21T07:09:43.135Z,78.06
2019-01-21T07:14:30.424Z,77.91
2019-01-21T07:19:40.592Z,77.87
2019-01-21T07:24:38.985Z,77.53
2019-01-21T07:28:58.687Z,76.06
2019-01-21T07:33:20.257Z,73.90
2019-01-21T07:37:53.228Z,74.82
2019-01-21T07:42:40.430Z,75.06
2019-01-21T07:47:28.195Z,74.88
2019-01-21T07:52:38.026Z,75.01
2019-01-21T07:57:14.404Z,75.29
2019-01-21T08:01:37.780Z,74.78
2019-01-21T08:06:22.790Z,74.20
2019-01-21T08:10:59.356Z,72.74
2019-01-21T08:15:32.778Z,67.17
2019-01-21T08:19:47.399Z,70.96
2019-01-21T08:24:22.554Z,68.27
2019-01-21T08:28:47.077Z,68.57
2019-01-21T08:33:27.375Z,67.38
2019-01-21T08:38:06.785Z,70.16
2019-01-21T08:42:41.110Z,64.36
2019-01-21T08:47:39.494Z,64.17
2019-01-21T08:52:27.116Z,66.49
2019-01-21T08:56:56.515Z,63.78
2019-01-21T09:01:15.255Z,63.21
2019-01-21T09:05:45.125Z,59.90
2019-01-21T09:10:06.092Z,62.71
2019-01-21T09:14:35.330Z,60.02
2019-01-21T09:19:42.475Z,58.67
2019-01-21T09:24:25.337Z,60.42
2019-01-21T09:28:45.355Z,62.56
2019-01-21T09:33:30.583Z,60.98
2019-01-21T09:38:13.149Z,62.50
2019-01-21T09:42:40.555Z,62.38
2019-01-21T09:46:44.622Z,62.24
2019-01-21T09:50:50.622Z,62.81
2019-01-21T09:54:55.746Z,61.78
2019-01-21T09:59:01.336Z,62.49
2019-01-21T10:03:06.639Z,60.98
2019-01-21T10:07:54.526Z,60.73
2019-01-21T10:12:26.570Z,59.98
2019-01-21T10:17:18.572Z,58.91
2019-01-21T10:22:04.934Z,58.05
2019-01-21T10:26:49.758Z,58.95
2019-01-21T10:31:30.249Z,60.33
2019-01-21T10:35:58.923Z,59.56
2019-01-21T10:40:39.204Z,57.92
2019-01-21T10:45:20.206Z,57.26
2019-01-21T10:50:15.417Z,55.90
2019-01-21T10:54:29.349Z,57.12
2019-01-21T10:59:36.654Z,50.96
2019-01-21T11:04:03.843Z,52.86
2019-01-21T11:08:42.868Z,53.28
2019-01-21T11:13:35.211Z,52.89
2019-01-21T11:18:02.073Z,51.42
2019-01-21T11:22:29.179Z,54.04
2019-01-21T11:27:20.308Z,53.59
2019-01-21T11:32:12.281Z,54.54
2019-01-21T11:37:07.349Z,55.94
2019-01-21T11:41:35.854Z,50.33
2019-01-21T11:46:11.398Z,50.09
2019-01-21T11:50:44.169Z,49.09
2019-01-21T11:55:25.008Z,49.98
2019-01-21T12:00:08.661Z,50.41
2019-01-21T12:04:25.008Z,49.18
2019-01-21T12:08:50.861Z,49.22
2019-01-21T12:13:16.716Z,49.74
2019-01-21T12:18:04.896Z,49.87
2019-01-21T12:22:41.144Z,49.47
2019-01-21T12:27:12.746Z,49.90
2019-01-21T12:31:39.495Z,48.78
2019-01-21T12:36:16.370Z,48.73
2019-01-21T12:40:42.191Z,49.07
2019-01-21T12:45:23.705Z,47.92
2019-01-21T12:50:12.657Z,46.59
2019-01-21T12:55:05.085Z,46.68
2019-01-21T12:59:33.821Z,47.52
2019-01-21T13:04:08.792Z,46.04
2019-01-21T13:08:26.442Z,46.16
2019-01-21T13:13:12.945Z,46.35
2019-01-21T13:17:37.005Z,45.22
2019-01-21T13:21:57.182Z,45.10
2019-01-21T13:26:28.830Z,44.61
2019-01-21T13:30:53.204Z,45.19
2019-01-21T13:35:23.359Z,43.50
2019-01-21T13:40:14.347Z,42.42
2019-01-21T13:45:06.071Z,45.37
2019-01-21T13:49:42.437Z,42.41
2019-01-21T13:54:23.539Z,41.37
2019-01-21T13:59:11.995Z,38.69
2019-01-21T14:04:03.501Z,38.69
2019-01-21T14:08:52.537Z,37.29
2019-01-21T14:13:26.567Z,41.54
2019-01-21T14:18:08.193Z,37.61
2019-01-21T14:22:47.659Z,38.75
2019-01-21T14:27:19.500Z,39.53
2019-01-21T14:31:59.994Z,40.20
2019-01-21T14:36:18.706Z,40.79
2019-01-21T14:41:08.249Z,42.37
2019-01-21T14:45:56.317Z,40.79
2019-01-21T14:50:25.280Z,41.11
2019-01-21T14:55:03.298Z,40.00
2019-01-21T14:59:20.857Z,39.27
2019-01-21T15:03:55.387Z,39.20
2019-01-21T15:08:25.261Z,41.02
2019-01-21T15:13:10.737Z,42.97
2019-01-21T15:17:38.422Z,43.21
2019-01-21T15:22:33.390Z,41.48
2019-01-21T15:27:05.956Z,42.02
2019-01-21T15:31:48.876Z,41.42
2019-01-21T15:36:30.412Z,41.88
2019-01-21T15:40:59.761Z,43.40
2019-01-21T15:45:49.900Z,45.55
2019-01-21T15:50:02.503Z,46.15
2019-01-21T15:54:57.602Z,44.67
2019-01-21T15:59:27.469Z,43.66
2019-01-21T16:04:07.702Z,46.60
2019-01-21T16:08:27.278Z,48.89
2019-01-21T16:13:08.560Z,50.99
2019-01-21T16:17:44.158Z,52.25
2019-01-21T16:22:38.016Z,52.98
2019-01-21T16:26:51.800Z,54.27
2019-01-21T16:31:38.957Z,55.70
2019-01-21T16:36:05.460Z,56.38
2019-01-21T16:41:06.784Z,56.61
2019-01-21T16:45:12.114Z,57.03
2019-01-21T16:49:17.255Z,60.18
2019-01-21T16:53:22.314Z,61.05
2019-01-21T16:57:27.423Z,61.90
2019-01-21T17:01:32.550Z,60.95
2019-01-21T17:05:37.639Z,60.64
2019-01-21T17:09:42.707Z,61.04
2019-01-21T17:13:47.771Z,61.57
2019-01-21T17:17:52.855Z,62.55
2019-01-21T17:21:58.044Z,63.45
2019-01-21T17:26:04.036Z,62.69
2019-01-21T17:30:11.117Z,62.29
2019-01-21T17:34:16.183Z,62.48
2019-01-21T17:38:22.358Z,62.55
2019-01-21T17:42:28.515Z,62.68
2019-01-21T17:46:33.725Z,63.05
2019-01-21T17:50:38.868Z,63.12
2019-01-21T17:54:44.011Z,64.50
2019-01-21T17:58:49.163Z,65.95
2019-01-21T18:02:54.304Z,65.58
2019-01-21T18:06:59.298Z,64.80
2019-01-21T18:11:05.448Z,64.46
2019-01-21T18:15:11.684Z,64.82
2019-01-21T18:19:16.740Z,65.19
2019-01-21T18:23:21.928Z,65.70
2019-01-21T18:27:27.023Z,66.38
2019-01-21T18:31:32.327Z,66.74
2019-01-21T18:35:37.556Z,67.04
2019-01-21T18:39:42.784Z,67.20
2019-01-21T18:43:47.838Z,67.10
2019-01-21T18:47:52.997Z,67.33
2019-01-21T18:51:58.230Z,67.08
2019-01-21T18:56:03.285Z,66.58
2019-01-21T19:00:12.150Z,67.12
2019-01-21T19:04:17.286Z,66.70
2019-01-21T19:08:22.510Z,67.16
2019-01-21T19:12:27.683Z,67.93
2019-01-21T19:16:32.843Z,68.76
2019-01-21T19:20:38.238Z,69.35
2019-01-21T19:24:43.280Z,70.63
2019-01-21T19:28:48.238Z,71.10
2019-01-21T19:32:53.624Z,70.25
2019-01-21T19:36:58.713Z,69.33
2019-01-21T19:41:03.838Z,69.71
2019-01-21T19:45:09.147Z,69.29
2019-01-21T19:49:14.193Z,68.88
2019-01-21T19:53:19.265Z,69.21
2019-01-21T19:57:25.295Z,69.26
2019-01-21T20:01:30.364Z,69.09
2019-01-21T20:05:35.556Z,68.74
2019-01-21T20:09:40.654Z,68.88
2019-01-21T20:13:47.044Z,68.88
2019-01-21T20:17:52.148Z,69.36
2019-01-21T20:21:57.238Z,69.65
2019-01-21T20:26:02.330Z,69.73
2019-01-21T20:30:08.665Z,70.14
2019-01-21T20:34:14.019Z,69.94
2019-01-21T20:38:19.347Z,69.75
2019-01-21T20:42:24.411Z,69.63
2019-01-21T20:46:29.895Z,70.09
2019-01-21T20:50:35.243Z,71.09
2019-01-21T20:54:40.356Z,71.63
2019-01-21T20:58:45.472Z,71.62
2019-01-21T21:02:50.579Z,71.16
2019-01-21T21:06:56.588Z,70.10
2019-01-21T21:11:01.650Z,69.94
2019-01-21T21:15:09.370Z,70.24
2019-01-21T21:19:14.493Z,69.97
2019-01-21T21:23:19.587Z,70.49
2019-01-21T21:27:24.824Z,71.01
2019-01-21T21:31:29.922Z,70.68
2019-01-21T21:35:34.992Z,69.95
2019-01-21T21:39:40.035Z,70.38
2019-01-21T21:43:45.420Z,69.88
2019-01-21T21:47:50.632Z,69.54
2019-01-21T21:51:55.687Z,70.26
2019-01-21T21:56:01.798Z,70.45
2019-01-21T22:00:09.606Z,69.80
2019-01-21T22:04:15.470Z,69.94
2019-01-21T22:08:20.665Z,69.94
2019-01-21T22:12:25.703Z,69.55
2019-01-21T22:16:30.707Z,69.35
2019-01-21T22:20:35.728Z,69.63
2019-01-21T22:24:40.994Z,70.47
2019-01-21T22:28:46.019Z,71.29
2019-01-21T22:32:51.055Z,71.72
2019-01-21T22:36:56.179Z,71.76
2019-01-21T22:41:01.211Z,71.90
2019-01-21T22:45:07.133Z,72.29
2019-01-21T22:49:12.145Z,72.65
2019-01-21T22:53:17.279Z,72.68
2019-01-21T22:57:22.474Z,72.71
2019-01-21T23:01:32.472Z,72.31
2019-01-21T23:05:37.677Z,73.45
2019-01-21T23:09:43.799Z,73.79
2019-01-21T23:13:48.952Z,73.33
2019-01-21T23:17:54.316Z,73.07
2019-01-21T23:21:59.335Z,72.79
2019-01-21T23:26:04.640Z,72.83
2019-01-21T23:30:11.845Z,72.90
2019-01-21T23:34:16.898Z,72.34
2019-01-21T23:38:22.332Z,72.54
2019-01-21T23:42:27.461Z,72.17
2019-01-21T23:46:32.571Z,72.28
2019-01-21T23:50:37.670Z,72.29
2019-01-21T23:54:42.986Z,72.26
2019-01-21T23:58:48.417Z,71.93
